Time;durP1;ratioP1;P1;durP2;ratioP2;P2;SDS_P1;SDS_P2;PMS_P1;PMS_P2;Temp;Humidity;BMP_temperature;BMP_pressure;BME280_temperature;BME280_humidity;BME280_pressure;Samples;Min_cycle;Max_cycle;Signal;HPM_P1;HPM_P2
2021/12/02 00:02:20;;;;;;;6.60;5.50;;;;;;;6.97;73.38;95745.33;103991;1350;22510;-60
2021/12/02 00:04:49;;;;;;;6.40;5.20;;;;;;;6.94;73.28;95742.20;104000;1351;22512;-61
2021/12/02 00:07:17;;;;;;;7.60;6.20;;;;;;;6.97;73.41;95744.36;104011;1351;23324;-61
2021/12/02 00:09:45;;;;;;;6.30;5.60;;;;;;;6.97;73.38;95746.58;104007;1351;23057;-61
2021/12/02 00:12:13;;;;;;;7.20;4.80;;;;;;;6.97;72.79;95744.56;104013;1351;22452;-61
2021/12/02 00:14:45;;;;;;;5.50;5.00;;;;;;;6.97;72.82;95733.90;103993;1350;23532;-62
2021/12/02 00:22:45;;;;;;;5.90;5.10;;;;;;;7.03;72.74;95739.08;104005;1351;22366;-61
2021/12/02 00:25:13;;;;;;;7.00;4.80;;;;;;;7.02;73.05;95744.77;103991;1349;22526;-60
2021/12/02 00:27:45;;;;;;;5.60;4.70;;;;;;;7.00;72.74;95744.39;104021;1351;22325;-61
2021/12/02 00:30:14;;;;;;;5.40;4.40;;;;;;;7.02;72.80;95747.96;103952;1351;22455;-59
2021/12/02 00:32:43;;;;;;;6.50;4.70;;;;;;;7.03;73.42;95746.65;103998;1351;22341;-59
2021/12/02 00:35:11;;;;;;;5.30;4.30;;;;;;;7.04;73.04;95745.21;103991;1351;22541;-60
2021/12/02 00:37:40;;;;;;;5.40;4.40;;;;;;;7.03;73.02;95747.05;104018;1350;22339;-60
2021/12/02 00:40:09;;;;;;;6.60;5.20;;;;;;;7.03;72.79;95753.23;104006;1349;22516;-60
2021/12/02 00:42:39;;;;;;;5.20;4.30;;;;;;;7.05;72.81;95750.40;103999;1351;22459;-61
2021/12/02 00:45:07;;;;;;;5.60;4.40;;;;;;;7.08;72.68;95748.11;104002;1351;22981;-61
2021/12/02 00:47:37;;;;;;;5.80;4.90;;;;;;;7.09;72.42;95738.11;103987;1351;22532;-61
2021/12/02 00:50:06;;;;;;;5.50;4.40;;;;;;;7.08;72.66;95744.89;103916;1351;22980;-61
2021/12/02 00:52:35;;;;;;;5.30;4.40;;;;;;;7.05;72.53;95743.44;103978;1351;22514;-61
2021/12/02 00:55:04;;;;;;;4.40;3.70;;;;;;;7.05;72.77;95733.42;104008;1351;22633;-60
2021/12/02 00:57:32;;;;;;;4.20;3.80;;;;;;;7.08;72.57;95734.18;104000;1351;22454;-60
2021/12/02 01:00:04;;;;;;;4.40;3.70;;;;;;;7.10;72.37;95733.59;103980;1351;22456;-60
2021/12/02 01:02:33;;;;;;;5.40;4.40;;;;;;;7.11;72.39;95729.02;103998;1351;23377;-60
2021/12/02 01:05:02;;;;;;;5.30;4.10;;;;;;;7.10;72.40;95727.00;104000;1351;23229;-60
2021/12/02 01:07:31;;;;;;;5.10;4.40;;;;;;;7.13;72.73;95734.30;103995;1350;23067;-60
2021/12/02 01:10:00;;;;;;;4.90;3.80;;;;;;;7.21;72.39;95738.09;104013;1351;23014;-59
2021/12/02 01:12:28;;;;;;;5.90;4.40;;;;;;;7.25;72.22;95747.10;103978;1351;22497;-60
2021/12/02 01:14:56;;;;;;;5.30;4.00;;;;;;;7.24;71.82;95741.96;103989;1351;22346;-60
2021/12/02 01:17:25;;;;;;;4.40;3.70;;;;;;;7.24;71.86;95731.61;103999;1351;22339;-60
2021/12/02 01:19:54;;;;;;;4.40;3.90;;;;;;;7.23;71.95;95732.94;103998;1351;22345;-60
2021/12/02 01:22:28;;;;;;;7.40;4.10;;;;;;;7.25;71.62;95733.73;104013;1351;22565;-61
2021/12/02 01:24:57;;;;;;;6.60;4.20;;;;;;;7.25;71.58;95736.73;104013;1351;22384;-60
2021/12/02 01:27:26;;;;;;;4.80;4.10;;;;;;;7.23;71.49;95720.77;103989;1351;23130;-61
2021/12/02 01:29:55;;;;;;;7.20;4.20;;;;;;;7.19;71.57;95721.04;103989;1351;22299;-60
2021/12/02 01:32:24;;;;;;;5.40;3.90;;;;;;;7.19;71.53;95720.50;103986;1351;22489;-60
2021/12/02 01:34:56;;;;;;;7.30;4.20;;;;;;;7.19;72.02;95721.35;104021;1351;22310;-60
2021/12/02 01:37:25;;;;;;;5.90;4.60;;;;;;;7.19;71.75;95731.37;103998;1351;23109;-61
2021/12/02 01:39:55;;;;;;;5.30;4.40;;;;;;;7.17;71.79;95732.14;103991;1350;22419;-60
2021/12/02 01:42:29;;;;;;;5.20;4.20;;;;;;;7.16;71.64;95736.45;103997;1351;22383;-60
2021/12/02 01:44:58;;;;;;;5.80;4.40;;;;;;;7.14;72.01;95730.35;104003;1351;22442;-60
2021/12/02 01:47:32;;;;;;;7.00;4.70;;;;;;;7.11;71.82;95729.62;103982;1350;22606;-61
2021/12/02 01:50:04;;;;;;;6.10;5.10;;;;;;;7.06;71.78;95725.86;103981;1351;22381;-60
2021/12/02 01:52:32;;;;;;;6.30;4.90;;;;;;;7.01;71.91;95724.30;103983;1351;23232;-61
2021/12/02 01:55:18;;;;;;;5.60;5.00;;;;;;;6.98;72.07;95726.14;104012;1351;22373;-60
2021/12/02 01:57:58;;;;;;;6.60;5.30;;;;;;;6.95;72.32;95725.16;104001;1351;23012;-61
2021/12/02 02:00:33;;;;;;;6.10;5.20;;;;;;;6.91;72.10;95723.25;104002;1351;23071;-60
2021/12/02 02:03:02;;;;;;;8.10;6.90;;;;;;;6.88;72.36;95733.30;103972;1351;22406;-60
2021/12/02 02:05:31;;;;;;;6.50;5.40;;;;;;;6.87;72.74;95738.70;104002;1351;23311;-61
2021/12/02 02:08:21;;;;;;;7.30;5.10;;;;;;;6.85;72.49;95735.61;103991;1351;23141;-61
2021/12/02 02:10:50;;;;;;;8.20;4.90;;;;;;;6.82;72.57;95745.83;103967;1351;22470;-61
2021/12/02 02:13:20;;;;;;;6.20;5.10;;;;;;;6.81;72.59;95748.85;103991;1348;22529;-61
2021/12/02 02:15:52;;;;;;;6.50;4.80;;;;;;;6.80;73.02;95754.75;104002;1351;22305;-61
2021/12/02 02:18:23;;;;;;;5.10;4.50;;;;;;;6.80;73.03;95754.30;104002;1351;22319;-60
2021/12/02 02:21:02;;;;;;;6.00;5.40;;;;;;;6.80;72.77;95754.38;103996;1351;23200;-61
2021/12/02 02:23:35;;;;;;;5.40;4.60;;;;;;;6.81;72.89;95752.29;103784;1351;305216;-61
2021/12/02 02:26:06;;;;;;;7.10;4.90;;;;;;;6.85;73.13;95752.16;104020;1351;23274;-60
2021/12/02 02:28:35;;;;;;;5.40;4.40;;;;;;;6.90;73.03;95743.88;104020;1351;22425;-61
2021/12/02 02:31:04;;;;;;;5.80;5.10;;;;;;;6.91;72.65;95743.99;103993;1351;22380;-60
2021/12/02 02:33:39;;;;;;;5.20;4.30;;;;;;;6.91;72.60;95741.92;104000;1351;23042;-61
2021/12/02 02:36:08;;;;;;;5.80;4.60;;;;;;;6.91;72.92;95746.52;104029;1349;23001;-61
2021/12/02 02:38:36;;;;;;;5.50;4.90;;;;;;;6.90;73.12;95749.98;104017;1351;22333;-61
2021/12/02 02:41:07;;;;;;;5.90;4.80;;;;;;;6.92;73.10;95752.30;104019;1351;22303;-61
2021/12/02 02:43:35;;;;;;;6.60;5.30;;;;;;;6.95;72.61;95756.96;103998;1351;22406;-61
2021/12/02 02:46:03;;;;;;;6.30;4.80;;;;;;;6.91;72.85;95757.02;104006;1351;22442;-60
2021/12/02 02:48:31;;;;;;;7.00;4.70;;;;;;;6.94;72.96;95753.27;104002;1351;22463;-61
2021/12/02 02:51:01;;;;;;;5.60;5.10;;;;;;;6.92;73.18;95755.89;103994;1351;23303;-61
2021/12/02 02:53:29;;;;;;;6.40;4.80;;;;;;;6.90;72.92;95755.81;104011;1351;23191;-60
2021/12/02 02:56:05;;;;;;;9.60;7.00;;;;;;;6.86;72.96;95754.65;104014;1351;23374;-61
2021/12/02 03:01:28;;;;;;;6.00;5.40;;;;;;;6.83;73.57;95765.81;103990;1351;22426;-61
2021/12/02 03:04:52;;;;;;;5.50;4.90;;;;;;;6.82;73.47;95764.02;103959;1351;22402;-60
2021/12/02 03:13:35;;;;;;;9.90;6.00;;;;;;;6.79;73.35;95769.13;104000;1351;22442;-60
2021/12/02 03:16:43;;;;;;;8.30;6.00;;;;;;;6.80;73.20;95772.61;103990;1351;22283;-61
2021/12/02 03:19:22;;;;;;;7.80;5.70;;;;;;;6.80;73.14;95771.29;103982;1351;23106;-61
2021/12/02 03:21:53;;;;;;;6.70;5.50;;;;;;;6.80;73.12;95767.61;103975;1351;22260;-61
2021/12/02 03:24:32;;;;;;;6.90;5.50;;;;;;;6.82;73.33;95774.20;103994;1351;22296;-61
2021/12/02 03:27:08;;;;;;;7.20;5.30;;;;;;;6.82;73.19;95776.34;103969;1351;23164;-61
2021/12/02 03:29:53;;;;;;;7.00;5.70;;;;;;;6.80;73.11;95777.42;103982;1351;22385;-61
2021/12/02 03:32:37;;;;;;;7.50;5.00;;;;;;;6.81;73.16;95770.09;103990;1351;22295;-61
2021/12/02 03:35:08;;;;;;;6.20;5.20;;;;;;;6.83;73.23;95771.33;103998;1351;23148;-61
2021/12/02 03:37:42;;;;;;;5.50;4.60;;;;;;;6.87;73.21;95768.63;104001;1351;22342;-61
2021/12/02 03:40:15;;;;;;;6.50;5.50;;;;;;;6.87;72.96;95761.28;103984;1351;22365;-61
2021/12/02 03:42:52;;;;;;;5.80;5.20;;;;;;;6.86;72.76;95769.04;103976;1351;22552;-61
2021/12/02 03:45:38;;;;;;;5.40;4.30;;;;;;;6.85;73.01;95766.88;103979;1351;23259;-61
2021/12/02 03:48:06;;;;;;;6.10;4.70;;;;;;;6.87;72.75;95764.58;103994;1351;22585;-60
2021/12/02 03:50:34;;;;;;;5.80;4.80;;;;;;;6.86;72.78;95768.96;104001;1351;22590;-61
2021/12/02 03:53:07;;;;;;;6.70;5.30;;;;;;;6.83;72.57;95767.33;104002;1351;22037;-61
2021/12/02 03:55:40;;;;;;;6.10;5.10;;;;;;;6.79;72.64;95767.98;104009;1351;22336;-61
2021/12/02 03:58:08;;;;;;;6.10;4.90;;;;;;;6.78;73.21;95768.60;103967;1351;22432;-61
2021/12/02 04:00:36;;;;;;;6.40;4.90;;;;;;;6.79;73.23;95770.48;103988;1351;22479;-60
2021/12/02 04:03:04;;;;;;;5.30;4.20;;;;;;;6.80;72.72;95776.01;103967;1351;22392;-60
2021/12/02 04:05:33;;;;;;;6.10;5.10;;;;;;;6.79;72.62;95774.07;103968;1351;23632;-60
2021/12/02 04:08:01;;;;;;;5.00;4.00;;;;;;;6.76;72.60;95771.98;104000;1351;22515;-60
2021/12/02 04:10:30;;;;;;;6.30;4.80;;;;;;;6.78;72.61;95771.99;103990;1351;22524;-60
2021/12/02 04:15:39;;;;;;;6.40;4.60;;;;;;;6.83;72.12;95786.61;103986;1351;22330;-59
2021/12/02 04:18:07;;;;;;;6.50;4.60;;;;;;;6.86;71.70;95787.54;103999;1351;22930;-60
2021/12/02 04:20:37;;;;;;;6.90;4.90;;;;;;;6.85;71.77;95793.17;103998;1351;22379;-60
2021/12/02 04:23:05;;;;;;;4.80;4.30;;;;;;;6.85;72.02;95786.59;103985;1351;22359;-60
2021/12/02 04:25:33;;;;;;;6.60;5.20;;;;;;;6.88;72.07;95794.73;104015;1351;22320;-60
2021/12/02 04:28:01;;;;;;;6.40;4.90;;;;;;;6.88;71.91;95794.75;103997;1351;22576;-60
2021/12/02 04:30:29;;;;;;;5.70;5.10;;;;;;;6.87;71.75;95804.05;104023;1351;22349;-60
2021/12/02 04:32:57;;;;;;;6.10;4.60;;;;;;;6.88;71.50;95806.81;103989;1351;22480;-60
2021/12/02 04:35:25;;;;;;;6.20;4.90;;;;;;;6.88;71.55;95801.08;103992;1351;22370;-60
2021/12/02 04:37:53;;;;;;;5.70;4.00;;;;;;;6.94;71.58;95801.64;103980;1351;22349;-60
2021/12/02 04:40:22;;;;;;;7.30;5.40;;;;;;;6.96;71.08;95808.90;103999;1351;22371;-60
2021/12/02 04:42:50;;;;;;;6.30;5.00;;;;;;;6.97;70.91;95810.22;103994;1351;22373;-60
2021/12/02 04:45:18;;;;;;;5.80;4.30;;;;;;;6.98;70.88;95811.10;103995;1351;23216;-60
2021/12/02 04:47:46;;;;;;;6.20;5.30;;;;;;;6.97;70.91;95807.30;104008;1351;22398;-60
2021/12/02 04:50:14;;;;;;;6.90;5.50;;;;;;;6.99;71.13;95812.38;103980;1351;22328;-60
2021/12/02 04:52:42;;;;;;;7.20;4.90;;;;;;;7.04;70.73;95813.32;104002;1351;22486;-60
2021/12/02 04:55:10;;;;;;;5.60;5.00;;;;;;;7.07;70.39;95812.67;103972;1351;23266;-60
2021/12/02 04:57:38;;;;;;;5.70;5.10;;;;;;;7.06;70.19;95816.30;103979;1351;23387;-60
2021/12/02 05:00:07;;;;;;;7.00;4.70;;;;;;;7.06;70.22;95818.38;103987;1351;22300;-60
2021/12/02 05:02:35;;;;;;;6.40;5.20;;;;;;;7.06;70.21;95814.84;103895;1351;22278;-59
2021/12/02 05:05:05;;;;;;;6.30;5.40;;;;;;;7.07;70.60;95818.03;104014;1351;22536;-60
2021/12/02 05:07:33;;;;;;;5.70;4.80;;;;;;;7.10;70.49;95825.31;104002;1351;22382;-60
2021/12/02 05:10:03;;;;;;;7.70;6.10;;;;;;;7.11;69.84;95817.70;104022;1351;22544;-60
2021/12/02 05:12:31;;;;;;;6.40;5.30;;;;;;;7.11;69.76;95821.46;104024;1351;23197;-60
2021/12/02 05:15:00;;;;;;;7.10;4.80;;;;;;;7.09;69.68;95834.71;104012;1351;22267;-60
2021/12/02 05:17:29;;;;;;;7.10;5.90;;;;;;;7.09;69.88;95829.64;103985;1350;23247;-60
2021/12/02 05:19:56;;;;;;;6.80;4.80;;;;;;;7.09;69.81;95824.98;104003;1351;22575;-59
2021/12/02 05:22:26;;;;;;;9.20;6.00;;;;;;;7.09;69.42;95832.92;103982;1351;22389;-59
2021/12/02 05:24:54;;;;;;;5.70;4.90;;;;;;;7.06;69.50;95825.69;104002;1351;22349;-60
2021/12/02 05:27:23;;;;;;;8.90;6.40;;;;;;;6.99;69.37;95830.37;104003;1351;22277;-60
2021/12/02 05:29:51;;;;;;;6.20;4.90;;;;;;;6.96;69.88;95832.62;104009;1351;22434;-60
2021/12/02 05:32:20;;;;;;;6.40;4.90;;;;;;;6.99;69.86;95828.95;103973;1351;22248;-61
2021/12/02 05:34:49;;;;;;;6.50;5.00;;;;;;;6.96;69.86;95831.36;104008;1351;22371;-61
2021/12/02 05:37:21;;;;;;;6.20;5.30;;;;;;;6.95;69.80;95831.64;103996;1351;22360;-61
2021/12/02 05:39:50;;;;;;;7.20;5.20;;;;;;;6.95;69.69;95836.31;103953;1351;22294;-61
2021/12/02 05:42:18;;;;;;;8.40;6.60;;;;;;;6.96;69.40;95835.89;103983;1348;22388;-61
2021/12/02 05:44:51;;;;;;;10.90;8.90;;;;;;;6.96;69.73;95836.12;103973;1351;22396;-61
2021/12/02 05:47:20;;;;;;;8.80;7.90;;;;;;;6.96;69.64;95834.67;103999;1351;22313;-61
2021/12/02 05:49:48;;;;;;;12.20;8.10;;;;;;;6.96;69.77;95835.80;103986;1351;23175;-61
2021/12/02 05:52:20;;;;;;;9.40;7.20;;;;;;;6.90;69.68;95831.85;104006;1351;22291;-61
2021/12/02 05:54:48;;;;;;;8.40;7.50;;;;;;;6.86;69.40;95838.86;104000;1351;22330;-60
2021/12/02 05:57:17;;;;;;;9.50;7.60;;;;;;;6.83;69.91;95842.54;103989;1351;22331;-61
2021/12/02 05:59:45;;;;;;;6.90;5.80;;;;;;;6.80;70.06;95845.25;104007;1349;22335;-61
2021/12/02 06:02:13;;;;;;;10.50;6.90;;;;;;;6.77;70.14;95852.08;104018;1351;22291;-61
2021/12/02 06:04:43;;;;;;;8.50;7.20;;;;;;;6.71;70.24;95850.16;103990;1351;22310;-61
2021/12/02 06:07:11;;;;;;;9.80;7.80;;;;;;;6.66;69.96;95852.10;103997;1351;23086;-61
2021/12/02 06:09:39;;;;;;;6.90;5.40;;;;;;;6.62;70.28;95858.08;103992;1351;22449;-60
2021/12/02 06:12:07;;;;;;;8.70;7.50;;;;;;;6.63;70.21;95862.95;103974;1351;22412;-59
2021/12/02 06:14:35;;;;;;;9.20;7.30;;;;;;;6.61;69.89;95863.39;103982;1351;22399;-61
2021/12/02 06:17:03;;;;;;;9.30;7.60;;;;;;;6.54;69.61;95867.56;104000;1351;23479;-60
2021/12/02 06:19:31;;;;;;;8.70;7.70;;;;;;;6.50;70.31;95871.20;103978;1351;22298;-61
2021/12/02 06:21:59;;;;;;;10.20;7.00;;;;;;;6.46;70.23;95872.77;103991;1351;22434;-61
2021/12/02 06:24:41;;;;;;;9.60;8.10;;;;;;;6.45;70.31;95877.97;103995;1351;22494;-61
2021/12/02 06:27:10;;;;;;;11.00;8.80;;;;;;;6.44;70.44;95876.48;104004;1351;22535;-60
2021/12/02 06:29:38;;;;;;;11.70;10.30;;;;;;;6.40;70.15;95883.95;104011;1351;22427;-61
2021/12/02 06:32:08;;;;;;;11.90;9.30;;;;;;;6.35;70.41;95885.66;104005;1351;22315;-59
2021/12/02 06:34:36;;;;;;;13.90;10.70;;;;;;;6.33;70.93;95883.98;104001;1351;22312;-61
2021/12/02 06:37:04;;;;;;;11.80;10.60;;;;;;;6.34;70.99;95876.39;103992;1351;22447;-60
2021/12/02 06:39:32;;;;;;;12.30;9.70;;;;;;;6.34;70.96;95890.68;104001;1351;23565;-61
2021/12/02 06:42:00;;;;;;;11.80;9.90;;;;;;;6.30;70.83;95891.50;103996;1351;23199;-60
2021/12/02 06:44:29;;;;;;;12.30;9.50;;;;;;;6.25;71.10;95897.89;103986;1351;22515;-60
2021/12/02 06:46:57;;;;;;;12.20;9.80;;;;;;;6.25;71.02;95898.73;104022;1351;22616;-62
2021/12/02 06:49:27;;;;;;;13.70;10.30;;;;;;;6.26;71.61;95897.09;104000;1351;22552;-62
2021/12/02 06:51:56;;;;;;;10.10;8.60;;;;;;;6.29;71.42;95895.21;104028;1351;22356;-63
2021/12/02 06:54:24;;;;;;;10.60;7.70;;;;;;;6.33;71.06;95896.29;103987;1351;22317;-61
2021/12/02 06:56:53;;;;;;;11.80;9.60;;;;;;;6.33;70.73;95897.83;104014;1351;23162;-61
2021/12/02 06:59:21;;;;;;;11.60;9.70;;;;;;;6.32;71.60;95894.22;104002;1349;23101;-60
2021/12/02 07:01:49;;;;;;;11.50;8.10;;;;;;;6.38;71.35;95907.25;104005;1351;22324;-60
2021/12/02 07:04:18;;;;;;;8.70;7.70;;;;;;;6.39;71.09;95902.05;103979;1351;22435;-61
2021/12/02 07:06:46;;;;;;;13.30;10.70;;;;;;;6.38;70.84;95903.69;103999;1351;23206;-61
2021/12/02 07:09:14;;;;;;;36.30;33.00;;;;;;;6.40;71.28;95904.66;103989;1351;22414;-60
2021/12/02 07:11:43;;;;;;;19.70;17.30;;;;;;;6.40;71.60;95901.60;103979;1351;22326;-60
2021/12/02 07:14:17;;;;;;;11.30;8.10;;;;;;;6.44;71.74;95911.55;103951;1351;22458;-60
2021/12/02 07:16:45;;;;;;;9.90;8.00;;;;;;;6.46;71.46;95916.45;103989;1351;22347;-60
2021/12/02 07:19:15;;;;;;;31.00;17.40;;;;;;;6.44;71.72;95911.95;103952;1351;22368;-60
2021/12/02 07:21:45;;;;;;;15.30;10.20;;;;;;;6.40;71.96;95913.75;104010;1351;23049;-61
2021/12/02 07:24:15;;;;;;;36.30;15.20;;;;;;;6.39;72.44;95912.81;104002;1351;23472;-60
2021/12/02 07:27:05;;;;;;;23.90;13.50;;;;;;;6.39;72.48;95921.13;103996;1351;22335;-61
2021/12/02 07:29:34;;;;;;;26.00;13.60;;;;;;;6.38;72.66;95924.23;104007;1350;22430;-61
2021/12/02 07:32:03;;;;;;;30.10;15.60;;;;;;;6.37;72.72;95923.27;103871;1351;22290;-60
2021/12/02 07:34:34;;;;;;;46.40;24.50;;;;;;;6.38;72.62;95925.16;103945;1351;22678;-61
2021/12/02 07:37:03;;;;;;;11.40;7.60;;;;;;;6.43;72.97;95920.60;103956;1351;22288;-61
2021/12/02 07:39:31;;;;;;;10.80;7.90;;;;;;;6.46;73.04;95922.43;103949;1351;22451;-61
2021/12/02 07:42:06;;;;;;;10.60;8.20;;;;;;;6.48;72.85;95925.77;103996;1351;22272;-61
2021/12/02 07:44:35;;;;;;;9.80;7.10;;;;;;;6.48;73.18;95929.69;103974;1351;22413;-60
2021/12/02 07:47:06;;;;;;;8.20;7.40;;;;;;;6.50;73.16;95932.77;103987;1351;22540;-60
2021/12/02 07:49:34;;;;;;;10.80;7.30;;;;;;;6.54;73.13;95930.39;103938;1351;22452;-61
2021/12/02 07:52:03;;;;;;;11.00;7.90;;;;;;;6.58;73.37;95936.74;103984;1351;22487;-61
2021/12/02 07:54:33;;;;;;;10.90;9.30;;;;;;;6.59;73.14;95939.55;103893;1351;22293;-60
2021/12/02 07:57:01;;;;;;;11.00;9.20;;;;;;;6.59;72.99;95935.26;103988;1351;22331;-60
2021/12/02 07:59:29;;;;;;;11.30;9.90;;;;;;;6.64;73.29;95949.68;103981;1351;22680;-60
2021/12/02 08:02:00;;;;;;;13.30;10.70;;;;;;;6.68;73.12;95940.41;103947;1351;22432;-61
2021/12/02 08:04:29;;;;;;;11.90;9.60;;;;;;;6.68;73.14;95940.84;103920;1351;23132;-61
2021/12/02 08:06:57;;;;;;;13.10;9.70;;;;;;;6.71;72.90;95950.48;103974;1351;23479;-61
2021/12/02 08:09:25;;;;;;;10.70;9.10;;;;;;;6.70;73.07;95948.78;103941;1351;22364;-60
2021/12/02 08:11:54;;;;;;;9.70;8.10;;;;;;;6.72;72.81;95955.14;103815;1351;22288;-61
2021/12/02 08:14:23;;;;;;;11.00;8.20;;;;;;;6.76;72.67;95960.94;104012;1351;22320;-61
2021/12/02 08:16:51;;;;;;;8.50;6.50;;;;;;;6.76;72.00;95966.70;103991;1351;22318;-61
2021/12/02 08:19:31;;;;;;;8.60;6.60;;;;;;;6.79;71.54;95967.27;103987;1351;22973;-61
2021/12/02 08:22:05;;;;;;;10.80;7.50;;;;;;;6.77;71.51;95964.94;103987;1351;22981;-60
2021/12/02 08:24:34;;;;;;;8.80;7.20;;;;;;;6.78;71.66;95966.45;103987;1351;22228;-60
2021/12/02 08:27:06;;;;;;;11.50;7.80;;;;;;;6.78;71.85;95981.08;104000;1351;22283;-60
2021/12/02 08:29:36;;;;;;;12.70;8.40;;;;;;;6.79;71.45;95980.88;103856;1347;22355;-60
2021/12/02 08:32:08;;;;;;;11.60;8.70;;;;;;;6.76;71.79;95981.13;103692;1344;137784;-60
2021/12/02 08:34:38;;;;;;;10.90;8.10;;;;;;;6.76;71.78;95987.88;103943;1352;22388;-60
2021/12/02 08:37:09;;;;;;;8.40;6.80;;;;;;;6.78;71.93;95995.14;103950;1352;22223;-61
2021/12/02 08:39:41;;;;;;;10.50;7.90;;;;;;;6.80;71.59;95993.02;103906;1344;22537;-60
2021/12/02 08:42:11;;;;;;;9.80;7.10;;;;;;;6.79;71.67;95986.38;103953;1352;22970;-60
2021/12/02 08:44:49;;;;;;;;;;;;;;;6.79;71.78;95984.11;103952;1351;23412;-61
2021/12/02 08:47:23;;;;;;;10.50;8.00;;;;;;;6.78;71.69;95987.35;103973;1354;22232;-60
2021/12/02 08:49:55;;;;;;;8.80;7.00;;;;;;;6.84;71.33;95993.29;103903;1349;22312;-60
2021/12/02 08:52:26;;;;;;;7.90;6.40;;;;;;;6.84;71.58;95992.56;103956;1352;22482;-60
2021/12/02 08:55:02;;;;;;;8.80;7.40;;;;;;;6.83;71.17;96004.38;103928;1351;22302;-59
2021/12/02 08:57:51;;;;;;;9.90;8.80;;;;;;;6.88;71.54;95991.92;103953;1352;22931;-60
2021/12/02 09:00:27;;;;;;;10.20;8.00;;;;;;;6.89;71.78;95992.20;103970;1352;22272;-61
2021/12/02 09:02:58;;;;;;;8.10;6.80;;;;;;;6.89;71.50;95998.18;103842;1352;137865;-60
2021/12/02 09:05:27;;;;;;;12.70;11.40;;;;;;;6.90;71.26;96009.99;103930;1352;22646;-60
2021/12/02 09:07:55;;;;;;;11.00;9.70;;;;;;;6.89;71.23;96013.84;103906;1352;22249;-61
2021/12/02 09:10:31;;;;;;;10.00;8.50;;;;;;;6.92;71.48;96005.73;103909;1352;22555;-61
2021/12/02 09:13:03;;;;;;;9.20;8.00;;;;;;;6.91;70.94;96018.05;103952;1352;22940;-60
2021/12/02 09:15:32;;;;;;;9.80;7.50;;;;;;;6.89;71.34;96022.60;103979;1347;22600;-61
2021/12/02 09:18:00;;;;;;;11.60;8.80;;;;;;;6.92;71.20;96019.33;103926;1351;22303;-60
2021/12/02 09:20:28;;;;;;;12.20;9.70;;;;;;;6.92;71.54;96019.09;103946;1352;23742;-61
2021/12/02 09:22:56;;;;;;;9.00;7.50;;;;;;;6.94;71.13;96021.35;103985;1351;22287;-61
2021/12/02 09:25:24;;;;;;;11.90;10.20;;;;;;;6.98;70.89;96018.18;103982;1350;22523;-60
2021/12/02 09:27:53;;;;;;;10.20;8.10;;;;;;;7.00;71.03;96025.77;104005;1351;23464;-60
2021/12/02 09:30:22;;;;;;;10.50;9.00;;;;;;;6.99;70.44;96028.33;103941;1351;22310;-60
2021/12/02 09:32:50;;;;;;;12.80;10.10;;;;;;;6.98;70.69;96033.96;104005;1351;23145;-60
2021/12/02 09:35:19;;;;;;;11.90;8.10;;;;;;;6.99;70.66;96030.88;103980;1351;23170;-59
2021/12/02 09:37:48;;;;;;;13.30;10.00;;;;;;;6.96;70.57;96029.21;103871;1351;137887;-61
2021/12/02 09:40:19;;;;;;;11.80;8.00;;;;;;;6.95;70.38;96025.98;103963;1351;22368;-61
2021/12/02 09:42:47;;;;;;;16.20;13.40;;;;;;;6.97;70.40;96035.06;103966;1351;23007;-60
2021/12/02 09:45:19;;;;;;;7.50;5.60;;;;;;;7.00;70.15;96036.58;103904;1346;22674;-60
2021/12/02 09:47:50;;;;;;;9.80;7.70;;;;;;;7.04;69.85;96015.70;103885;1351;22345;-61
2021/12/02 09:50:28;;;;;;;9.60;6.70;;;;;;;7.10;69.43;96010.55;103926;1351;22301;-61
2021/12/02 09:53:14;;;;;;;10.70;7.70;;;;;;;7.15;69.26;96013.84;103948;1351;22341;-60
2021/12/02 09:58:22;;;;;;;12.00;8.30;;;;;;;7.34;69.05;96019.41;103993;1351;22381;-60
2021/12/02 10:01:07;;;;;;;19.60;11.80;;;;;;;7.40;68.04;96010.13;103943;1344;22288;-61
2021/12/02 10:03:45;;;;;;;30.40;18.00;;;;;;;7.41;68.22;96015.52;103937;1351;22474;-60
2021/12/02 10:06:29;;;;;;;12.00;8.10;;;;;;;7.40;67.90;96022.39;103973;1353;22538;-60
2021/12/02 10:09:15;;;;;;;8.90;6.80;;;;;;;7.35;67.32;96020.89;103825;1352;137735;-61
2021/12/02 10:11:54;;;;;;;17.00;9.50;;;;;;;7.26;67.11;96023.86;103921;1352;23028;-61
2021/12/02 10:14:39;;;;;;;7.70;5.50;;;;;;;7.20;67.25;96024.20;103946;1353;22381;-60
2021/12/02 10:23:13;;;;;;;9.80;7.50;;;;;;;7.07;67.18;96021.93;103601;1351;481367;-61
2021/12/02 10:26:03;;;;;;;14.90;9.50;;;;;;;7.07;66.96;96029.02;103917;1352;22936;-62
2021/12/02 10:28:41;;;;;;;7.40;6.20;;;;;;;7.04;66.56;96039.05;103938;1352;22329;-61
2021/12/02 10:31:17;;;;;;;8.20;5.40;;;;;;;7.00;66.25;96031.97;103860;1351;23135;-62
2021/12/02 10:33:51;;;;;;;7.20;6.00;;;;;;;6.91;66.48;96039.63;103967;1353;22572;-62
2021/12/02 10:36:48;;;;;;;8.20;6.40;;;;;;;6.89;67.24;96039.63;103957;1353;22064;-62
2021/12/02 10:39:25;;;;;;;8.60;5.90;;;;;;;6.88;66.99;96043.42;103744;1356;23483;-61
2021/12/02 10:42:05;;;;;;;9.90;5.40;;;;;;;6.87;67.05;96044.36;103754;1355;23020;-61
2021/12/02 10:44:35;;;;;;;8.80;6.10;;;;;;;6.85;67.16;96041.23;103727;1356;23058;-62
2021/12/02 10:47:10;;;;;;;41.60;21.90;;;;;;;6.84;67.10;96039.11;103718;1356;22475;-61
2021/12/02 10:49:42;;;;;;;31.00;17.40;;;;;;;6.83;67.56;96034.36;103732;1355;22475;-61
2021/12/02 10:52:16;;;;;;;10.10;5.70;;;;;;;6.91;67.66;96042.52;103727;1357;22344;-60
2021/12/02 10:54:51;;;;;;;13.10;8.70;;;;;;;6.92;66.89;96035.55;103590;1356;22363;-62
2021/12/02 10:57:51;;;;;;;10.70;6.50;;;;;;;6.90;66.16;96032.10;103738;1357;22593;-61
2021/12/02 11:00:29;;;;;;;8.00;6.10;;;;;;;6.85;66.05;96033.89;103623;1357;138878;-61
2021/12/02 11:03:09;;;;;;;10.30;5.70;;;;;;;6.82;66.76;96035.70;103838;1351;22521;-61
2021/12/02 11:05:51;;;;;;;9.70;6.60;;;;;;;6.85;66.50;96033.13;103950;1353;22517;-61
2021/12/02 11:08:34;;;;;;;12.00;8.50;;;;;;;6.87;66.44;96035.10;103813;1354;22421;-62
2021/12/02 11:11:23;;;;;;;8.10;6.30;;;;;;;6.87;66.62;96045.73;103907;1354;23178;-61
2021/12/02 11:13:57;;;;;;;12.40;9.60;;;;;;;6.91;66.99;96038.96;103856;1352;23308;-61
2021/12/02 11:16:35;;;;;;;10.50;7.60;;;;;;;6.94;66.39;96046.27;103949;1348;22324;-62
2021/12/02 11:19:21;;;;;;;9.30;8.30;;;;;;;6.94;66.14;96045.09;103849;1351;22966;-62
2021/12/02 11:22:10;;;;;;;8.90;6.00;;;;;;;6.89;66.18;96042.75;103927;1349;22294;-63
2021/12/02 11:24:43;;;;;;;9.50;8.00;;;;;;;6.86;66.04;96043.16;103916;1352;22412;-62
2021/12/02 11:27:46;;;;;;;11.30;7.50;;;;;;;6.83;66.36;96040.06;103799;1354;22389;-62
2021/12/02 11:30:34;;;;;;;10.10;7.70;;;;;;;6.84;66.83;96034.16;103908;1352;22569;-63
2021/12/02 11:33:39;;;;;;;10.00;7.90;;;;;;;6.91;66.93;96033.92;103861;1351;22452;-62
2021/12/02 11:36:34;;;;;;;10.20;8.80;;;;;;;6.96;66.89;96035.18;103855;1351;22989;-61
2021/12/02 11:39:13;;;;;;;12.20;8.40;;;;;;;6.94;66.63;96030.30;103954;1354;22356;-62
2021/12/02 11:41:46;;;;;;;8.70;7.10;;;;;;;6.96;66.45;96032.86;103845;1352;137611;-61
2021/12/02 11:44:14;;;;;;;10.00;7.70;;;;;;;6.95;66.18;96033.81;103949;1352;22952;-63
2021/12/02 11:46:46;;;;;;;10.90;8.20;;;;;;;6.92;65.83;96031.87;103922;1353;22334;-62
2021/12/02 11:49:20;;;;;;;15.90;14.20;;;;;;;6.88;66.13;96031.63;103957;1352;22388;-62
2021/12/02 11:51:55;;;;;;;20.70;18.50;;;;;;;6.92;66.36;96037.23;103965;1352;22327;-61
2021/12/02 11:54:28;;;;;;;19.00;16.80;;;;;;;6.92;66.75;96035.26;103958;1348;23009;-62
2021/12/02 11:57:01;;;;;;;13.40;12.00;;;;;;;6.95;66.65;96040.50;103958;1352;22509;-62
2021/12/02 11:59:29;;;;;;;18.80;16.80;;;;;;;6.92;66.74;96042.10;103939;1352;22380;-62
2021/12/02 12:02:02;;;;;;;16.20;14.10;;;;;;;6.88;66.63;96039.98;103938;1348;22445;-61
2021/12/02 12:04:35;;;;;;;13.00;11.20;;;;;;;6.86;66.34;96044.86;103903;1353;22577;-62
2021/12/02 12:07:13;;;;;;;18.80;14.50;;;;;;;6.83;66.39;96041.44;103920;1352;22534;-62
2021/12/02 12:09:47;;;;;;;9.70;8.70;;;;;;;6.80;66.46;96046.18;103957;1354;22312;-60
2021/12/02 12:12:35;;;;;;;11.60;10.20;;;;;;;6.78;66.91;96042.88;103686;1352;137768;-61
2021/12/02 12:15:37;;;;;;;10.60;9.20;;;;;;;6.80;66.52;96041.05;103876;1344;22432;-61
2021/12/02 12:18:22;;;;;;;10.20;6.70;;;;;;;6.78;66.47;96040.48;103895;1353;22338;-61
2021/12/02 12:21:14;;;;;;;10.60;9.10;;;;;;;6.77;66.16;96039.06;103900;1351;22471;-62